sensor_id;sensor_type;location;lat;lon;timestamp;P1;durP1;ratioP1;P2;durP2;ratioP2
71187;SDS011;58893;53.130;8.158;2022-08-19T00:00:04;5.03;;;3.60;;
71187;SDS011;58893;53.130;8.158;2022-08-19T00:02:33;5.57;;;3.80;;
71187;SDS011;58893;53.130;8.158;2022-08-19T00:04:58;7.43;;;4.13;;
71187;SDS011;58893;53.130;8.158;2022-08-19T00:07:24;5.53;;;3.70;;
71187;SDS011;58893;53.130;8.158;2022-08-19T00:09:50;6.87;;;3.63;;
71187;SDS011;58893;53.130;8.158;2022-08-19T00:12:15;3.93;;;3.40;;
71187;SDS011;58893;53.130;8.158;2022-08-19T00:14:41;7.47;;;3.80;;
71187;SDS011;58893;53.130;8.158;2022-08-19T00:17:07;6.40;;;3.27;;
71187;SDS011;58893;53.130;8.158;2022-08-19T00:19:34;4.70;;;3.20;;
71187;SDS011;58893;53.130;8.158;2022-08-19T00:22:01;5.03;;;3.13;;
71187;SDS011;58893;53.130;8.158;2022-08-19T00:24:27;3.50;;;2.77;;
71187;SDS011;58893;53.130;8.158;2022-08-19T00:26:53;4.23;;;2.77;;
71187;SDS011;58893;53.130;8.158;2022-08-19T00:29:20;8.77;;;2.80;;
71187;SDS011;58893;53.130;8.158;2022-08-19T00:31:47;3.30;;;2.20;;
71187;SDS011;58893;53.130;8.158;2022-08-19T00:34:13;4.50;;;2.50;;
71187;SDS011;58893;53.130;8.158;2022-08-19T00:36:40;4.90;;;3.13;;
71187;SDS011;58893;53.130;8.158;2022-08-19T00:39:06;4.87;;;2.73;;
71187;SDS011;58893;53.130;8.158;2022-08-19T00:41:33;2.57;;;2.37;;
71187;SDS011;58893;53.130;8.158;2022-08-19T00:46:30;5.60;;;3.10;;
71187;SDS011;58893;53.130;8.158;2022-08-19T00:48:58;4.57;;;2.90;;
71187;SDS011;58893;53.130;8.158;2022-08-19T00:51:26;3.87;;;2.83;;
71187;SDS011;58893;53.130;8.158;2022-08-19T00:53:55;5.33;;;2.20;;
71187;SDS011;58893;53.130;8.158;2022-08-19T00:56:23;5.10;;;2.63;;
71187;SDS011;58893;53.130;8.158;2022-08-19T00:58:52;5.40;;;2.13;;
71187;SDS011;58893;53.130;8.158;2022-08-19T01:01:18;4.73;;;2.50;;
71187;SDS011;58893;53.130;8.158;2022-08-19T01:03:44;3.77;;;2.47;;
71187;SDS011;58893;53.130;8.158;2022-08-19T01:06:10;4.90;;;3.20;;
71187;SDS011;58893;53.130;8.158;2022-08-19T01:08:35;8.00;;;4.30;;
71187;SDS011;58893;53.130;8.158;2022-08-19T01:11:01;8.83;;;4.57;;
71187;SDS011;58893;53.130;8.158;2022-08-19T01:13:28;7.10;;;4.23;;
71187;SDS011;58893;53.130;8.158;2022-08-19T01:16:08;7.97;;;4.77;;
71187;SDS011;58893;53.130;8.158;2022-08-19T01:18:36;8.07;;;4.00;;
71187;SDS011;58893;53.130;8.158;2022-08-19T01:21:12;6.70;;;3.97;;
71187;SDS011;58893;53.130;8.158;2022-08-19T01:23:51;4.87;;;3.20;;
71187;SDS011;58893;53.130;8.158;2022-08-19T01:26:18;7.93;;;4.07;;
71187;SDS011;58893;53.130;8.158;2022-08-19T01:28:47;15.00;;;4.10;;
71187;SDS011;58893;53.130;8.158;2022-08-19T01:31:16;7.37;;;3.93;;
71187;SDS011;58893;53.130;8.158;2022-08-19T01:33:47;7.47;;;3.67;;
71187;SDS011;58893;53.130;8.158;2022-08-19T01:36:15;6.00;;;3.47;;
71187;SDS011;58893;53.130;8.158;2022-08-19T01:38:55;6.50;;;3.53;;
71187;SDS011;58893;53.130;8.158;2022-08-19T01:41:21;12.63;;;4.23;;
71187;SDS011;58893;53.130;8.158;2022-08-19T01:43:48;6.20;;;3.97;;
71187;SDS011;58893;53.130;8.158;2022-08-19T01:46:15;6.50;;;3.97;;
71187;SDS011;58893;53.130;8.158;2022-08-19T01:48:41;8.77;;;4.83;;
71187;SDS011;58893;53.130;8.158;2022-08-19T01:51:08;9.87;;;5.47;;
71187;SDS011;58893;53.130;8.158;2022-08-19T01:53:35;8.60;;;5.20;;
71187;SDS011;58893;53.130;8.158;2022-08-19T01:56:02;7.13;;;4.40;;
71187;SDS011;58893;53.130;8.158;2022-08-19T01:58:30;11.40;;;4.33;;
71187;SDS011;58893;53.130;8.158;2022-08-19T02:01:02;9.30;;;4.50;;
71187;SDS011;58893;53.130;8.158;2022-08-19T02:03:29;14.57;;;5.03;;
71187;SDS011;58893;53.130;8.158;2022-08-19T02:05:58;7.77;;;4.17;;
71187;SDS011;58893;53.130;8.158;2022-08-19T02:08:25;5.83;;;3.30;;
71187;SDS011;58893;53.130;8.158;2022-08-19T02:10:52;6.17;;;3.67;;
71187;SDS011;58893;53.130;8.158;2022-08-19T02:13:18;4.20;;;3.30;;
71187;SDS011;58893;53.130;8.158;2022-08-19T02:15:44;6.70;;;3.80;;
71187;SDS011;58893;53.130;8.158;2022-08-19T02:18:10;7.90;;;4.20;;
71187;SDS011;58893;53.130;8.158;2022-08-19T02:20:37;6.90;;;4.00;;
71187;SDS011;58893;53.130;8.158;2022-08-19T02:23:03;5.53;;;3.57;;
71187;SDS011;58893;53.130;8.158;2022-08-19T02:25:29;9.00;;;4.40;;
71187;SDS011;58893;53.130;8.158;2022-08-19T02:27:55;6.80;;;3.50;;
71187;SDS011;58893;53.130;8.158;2022-08-19T02:30:21;8.60;;;3.97;;
71187;SDS011;58893;53.130;8.158;2022-08-19T02:32:49;4.87;;;3.27;;
71187;SDS011;58893;53.130;8.158;2022-08-19T02:35:16;8.50;;;3.97;;
71187;SDS011;58893;53.130;8.158;2022-08-19T02:37:41;7.37;;;4.43;;
71187;SDS011;58893;53.130;8.158;2022-08-19T02:40:26;6.63;;;3.93;;
71187;SDS011;58893;53.130;8.158;2022-08-19T02:42:53;10.93;;;4.07;;
71187;SDS011;58893;53.130;8.158;2022-08-19T02:45:19;5.57;;;3.63;;
71187;SDS011;58893;53.130;8.158;2022-08-19T02:47:45;4.87;;;3.27;;
71187;SDS011;58893;53.130;8.158;2022-08-19T02:50:11;5.17;;;3.27;;
71187;SDS011;58893;53.130;8.158;2022-08-19T02:52:37;3.87;;;2.60;;
71187;SDS011;58893;53.130;8.158;2022-08-19T02:55:03;4.50;;;3.17;;
71187;SDS011;58893;53.130;8.158;2022-08-19T02:57:30;6.77;;;3.83;;
71187;SDS011;58893;53.130;8.158;2022-08-19T02:59:56;5.20;;;3.10;;
71187;SDS011;58893;53.130;8.158;2022-08-19T03:02:22;6.13;;;4.03;;
71187;SDS011;58893;53.130;8.158;2022-08-19T03:04:48;6.10;;;3.83;;
71187;SDS011;58893;53.130;8.158;2022-08-19T03:07:15;6.83;;;4.33;;
71187;SDS011;58893;53.130;8.158;2022-08-19T03:09:41;5.67;;;4.23;;
71187;SDS011;58893;53.130;8.158;2022-08-19T03:12:07;6.07;;;3.90;;
71187;SDS011;58893;53.130;8.158;2022-08-19T03:14:34;4.70;;;2.63;;
71187;SDS011;58893;53.130;8.158;2022-08-19T03:17:00;5.90;;;3.27;;
71187;SDS011;58893;53.130;8.158;2022-08-19T03:19:28;5.10;;;3.47;;
71187;SDS011;58893;53.130;8.158;2022-08-19T03:21:53;5.57;;;3.80;;
71187;SDS011;58893;53.130;8.158;2022-08-19T03:24:20;4.83;;;3.40;;
71187;SDS011;58893;53.130;8.158;2022-08-19T03:26:47;6.10;;;3.50;;
71187;SDS011;58893;53.130;8.158;2022-08-19T03:29:22;5.57;;;3.40;;
71187;SDS011;58893;53.130;8.158;2022-08-19T03:31:50;11.03;;;3.33;;
71187;SDS011;58893;53.130;8.158;2022-08-19T03:34:20;4.30;;;2.83;;
71187;SDS011;58893;53.130;8.158;2022-08-19T03:36:51;5.10;;;3.27;;
71187;SDS011;58893;53.130;8.158;2022-08-19T03:39:17;6.97;;;4.00;;
71187;SDS011;58893;53.130;8.158;2022-08-19T03:41:44;5.77;;;3.60;;
71187;SDS011;58893;53.130;8.158;2022-08-19T03:44:11;4.93;;;2.93;;
71187;SDS011;58893;53.130;8.158;2022-08-19T03:46:42;5.30;;;3.33;;
71187;SDS011;58893;53.130;8.158;2022-08-19T03:49:08;9.93;;;4.70;;
71187;SDS011;58893;53.130;8.158;2022-08-19T03:51:35;5.80;;;3.60;;
71187;SDS011;58893;53.130;8.158;2022-08-19T03:54:03;7.80;;;3.97;;
71187;SDS011;58893;53.130;8.158;2022-08-19T03:56:32;8.07;;;3.73;;
71187;SDS011;58893;53.130;8.158;2022-08-19T03:58:59;8.20;;;3.80;;
71187;SDS011;58893;53.130;8.158;2022-08-19T04:01:27;9.30;;;3.73;;
71187;SDS011;58893;53.130;8.158;2022-08-19T04:03:53;7.80;;;4.17;;
71187;SDS011;58893;53.130;8.158;2022-08-19T04:06:22;10.53;;;3.50;;
71187;SDS011;58893;53.130;8.158;2022-08-19T04:08:51;7.80;;;3.57;;
71187;SDS011;58893;53.130;8.158;2022-08-19T04:11:23;8.13;;;3.93;;
71187;SDS011;58893;53.130;8.158;2022-08-19T04:14:09;6.20;;;3.27;;
71187;SDS011;58893;53.130;8.158;2022-08-19T04:16:38;9.67;;;4.37;;
71187;SDS011;58893;53.130;8.158;2022-08-19T04:19:04;12.23;;;5.67;;
71187;SDS011;58893;53.130;8.158;2022-08-19T04:21:31;12.70;;;5.00;;
71187;SDS011;58893;53.130;8.158;2022-08-19T04:23:58;9.40;;;4.53;;
71187;SDS011;58893;53.130;8.158;2022-08-19T04:26:25;18.30;;;5.00;;
71187;SDS011;58893;53.130;8.158;2022-08-19T04:28:59;8.20;;;3.70;;
71187;SDS011;58893;53.130;8.158;2022-08-19T04:31:27;10.10;;;4.23;;
71187;SDS011;58893;53.130;8.158;2022-08-19T04:33:57;11.67;;;4.83;;
71187;SDS011;58893;53.130;8.158;2022-08-19T04:36:25;8.80;;;3.80;;
71187;SDS011;58893;53.130;8.158;2022-08-19T04:38:54;6.60;;;4.00;;
71187;SDS011;58893;53.130;8.158;2022-08-19T04:41:24;5.67;;;3.50;;
71187;SDS011;58893;53.130;8.158;2022-08-19T04:44:09;6.07;;;3.70;;
71187;SDS011;58893;53.130;8.158;2022-08-19T04:46:35;9.50;;;4.00;;
71187;SDS011;58893;53.130;8.158;2022-08-19T04:49:02;9.50;;;4.77;;
71187;SDS011;58893;53.130;8.158;2022-08-19T04:51:30;10.27;;;4.57;;
71187;SDS011;58893;53.130;8.158;2022-08-19T04:53:56;12.03;;;5.67;;
71187;SDS011;58893;53.130;8.158;2022-08-19T04:56:22;11.80;;;4.53;;
71187;SDS011;58893;53.130;8.158;2022-08-19T04:58:51;12.53;;;5.37;;
71187;SDS011;58893;53.130;8.158;2022-08-19T05:01:18;8.80;;;4.63;;
71187;SDS011;58893;53.130;8.158;2022-08-19T05:03:49;11.40;;;4.40;;
71187;SDS011;58893;53.130;8.158;2022-08-19T05:06:15;9.57;;;4.93;;
71187;SDS011;58893;53.130;8.158;2022-08-19T05:08:44;11.67;;;4.77;;
71187;SDS011;58893;53.130;8.158;2022-08-19T05:11:30;8.90;;;4.50;;
71187;SDS011;58893;53.130;8.158;2022-08-19T05:13:59;11.37;;;5.50;;
71187;SDS011;58893;53.130;8.158;2022-08-19T05:16:26;8.77;;;5.00;;
71187;SDS011;58893;53.130;8.158;2022-08-19T05:18:52;9.23;;;4.53;;
71187;SDS011;58893;53.130;8.158;2022-08-19T05:21:38;8.97;;;3.93;;
71187;SDS011;58893;53.130;8.158;2022-08-19T05:24:23;7.47;;;4.20;;
71187;SDS011;58893;53.130;8.158;2022-08-19T05:26:50;8.90;;;5.07;;
71187;SDS011;58893;53.130;8.158;2022-08-19T05:29:17;9.23;;;4.50;;
71187;SDS011;58893;53.130;8.158;2022-08-19T05:31:45;7.53;;;4.40;;
71187;SDS011;58893;53.130;8.158;2022-08-19T05:34:14;6.80;;;3.73;;
71187;SDS011;58893;53.130;8.158;2022-08-19T05:36:41;6.83;;;4.37;;
71187;SDS011;58893;53.130;8.158;2022-08-19T05:39:10;7.20;;;4.37;;
71187;SDS011;58893;53.130;8.158;2022-08-19T05:41:42;8.10;;;4.80;;
71187;SDS011;58893;53.130;8.158;2022-08-19T05:44:09;6.57;;;4.20;;
71187;SDS011;58893;53.130;8.158;2022-08-19T05:46:36;7.20;;;4.10;;
71187;SDS011;58893;53.130;8.158;2022-08-19T05:49:06;7.10;;;4.07;;
71187;SDS011;58893;53.130;8.158;2022-08-19T05:51:33;7.50;;;5.07;;
71187;SDS011;58893;53.130;8.158;2022-08-19T05:54:00;6.63;;;4.77;;
71187;SDS011;58893;53.130;8.158;2022-08-19T05:56:27;6.20;;;4.00;;
71187;SDS011;58893;53.130;8.158;2022-08-19T05:58:55;6.70;;;4.07;;
71187;SDS011;58893;53.130;8.158;2022-08-19T06:01:23;7.27;;;4.20;;
71187;SDS011;58893;53.130;8.158;2022-08-19T06:03:50;7.63;;;4.63;;
71187;SDS011;58893;53.130;8.158;2022-08-19T06:06:16;11.30;;;4.43;;
71187;SDS011;58893;53.130;8.158;2022-08-19T06:08:43;8.20;;;4.97;;
71187;SDS011;58893;53.130;8.158;2022-08-19T06:11:32;8.80;;;5.10;;
71187;SDS011;58893;53.130;8.158;2022-08-19T06:14:05;6.33;;;3.67;;
71187;SDS011;58893;53.130;8.158;2022-08-19T06:16:36;5.93;;;4.07;;
71187;SDS011;58893;53.130;8.158;2022-08-19T06:19:04;9.00;;;5.00;;
71187;SDS011;58893;53.130;8.158;2022-08-19T06:21:32;10.90;;;4.13;;
71187;SDS011;58893;53.130;8.158;2022-08-19T06:24:00;8.17;;;4.80;;
71187;SDS011;58893;53.130;8.158;2022-08-19T06:26:27;3.80;;;3.07;;
71187;SDS011;58893;53.130;8.158;2022-08-19T06:28:53;7.63;;;4.80;;
71187;SDS011;58893;53.130;8.158;2022-08-19T06:31:24;8.47;;;4.50;;
71187;SDS011;58893;53.130;8.158;2022-08-19T06:33:52;7.77;;;4.37;;
71187;SDS011;58893;53.130;8.158;2022-08-19T06:36:19;4.13;;;3.30;;
71187;SDS011;58893;53.130;8.158;2022-08-19T06:38:46;5.03;;;4.00;;
71187;SDS011;58893;53.130;8.158;2022-08-19T06:41:12;15.07;;;5.00;;
71187;SDS011;58893;53.130;8.158;2022-08-19T06:43:38;6.93;;;4.10;;
71187;SDS011;58893;53.130;8.158;2022-08-19T06:46:03;4.23;;;3.20;;
71187;SDS011;58893;53.130;8.158;2022-08-19T06:48:36;3.37;;;3.00;;
71187;SDS011;58893;53.130;8.158;2022-08-19T06:51:02;4.10;;;3.23;;
71187;SDS011;58893;53.130;8.158;2022-08-19T06:53:30;4.00;;;3.00;;
71187;SDS011;58893;53.130;8.158;2022-08-19T06:55:56;7.27;;;3.10;;
71187;SDS011;58893;53.130;8.158;2022-08-19T06:58:25;3.47;;;2.70;;
71187;SDS011;58893;53.130;8.158;2022-08-19T07:00:51;4.73;;;2.80;;
71187;SDS011;58893;53.130;8.158;2022-08-19T07:03:16;3.83;;;3.03;;
71187;SDS011;58893;53.130;8.158;2022-08-19T07:05:42;6.10;;;2.90;;
71187;SDS011;58893;53.130;8.158;2022-08-19T07:08:08;4.40;;;3.00;;
71187;SDS011;58893;53.130;8.158;2022-08-19T07:10:34;11.77;;;3.50;;
71187;SDS011;58893;53.130;8.158;2022-08-19T07:13:01;6.30;;;2.80;;
71187;SDS011;58893;53.130;8.158;2022-08-19T07:15:28;4.90;;;3.43;;
71187;SDS011;58893;53.130;8.158;2022-08-19T07:17:54;6.80;;;3.40;;
71187;SDS011;58893;53.130;8.158;2022-08-19T07:20:20;4.23;;;3.07;;
71187;SDS011;58893;53.130;8.158;2022-08-19T07:22:45;5.27;;;3.30;;
71187;SDS011;58893;53.130;8.158;2022-08-19T07:25:12;8.73;;;2.70;;
71187;SDS011;58893;53.130;8.158;2022-08-19T07:27:38;4.13;;;2.40;;
71187;SDS011;58893;53.130;8.158;2022-08-19T07:30:04;3.60;;;2.40;;
71187;SDS011;58893;53.130;8.158;2022-08-19T07:32:31;3.53;;;2.43;;
71187;SDS011;58893;53.130;8.158;2022-08-19T07:34:57;5.13;;;2.47;;
71187;SDS011;58893;53.130;8.158;2022-08-19T07:37:25;4.97;;;2.53;;
71187;SDS011;58893;53.130;8.158;2022-08-19T07:39:53;3.50;;;2.57;;
71187;SDS011;58893;53.130;8.158;2022-08-19T07:42:19;4.50;;;2.67;;
71187;SDS011;58893;53.130;8.158;2022-08-19T07:44:45;5.07;;;2.53;;
71187;SDS011;58893;53.130;8.158;2022-08-19T07:47:11;4.90;;;2.80;;
71187;SDS011;58893;53.130;8.158;2022-08-19T07:49:40;4.10;;;2.27;;
71187;SDS011;58893;53.130;8.158;2022-08-19T07:52:07;9.40;;;2.37;;
71187;SDS011;58893;53.130;8.158;2022-08-19T07:54:34;5.43;;;2.70;;
71187;SDS011;58893;53.130;8.158;2022-08-19T07:57:02;4.07;;;2.60;;
71187;SDS011;58893;53.130;8.158;2022-08-19T07:59:28;4.80;;;2.60;;
71187;SDS011;58893;53.130;8.158;2022-08-19T08:01:54;4.80;;;3.00;;
71187;SDS011;58893;53.130;8.158;2022-08-19T08:04:21;6.27;;;2.80;;
71187;SDS011;58893;53.130;8.158;2022-08-19T08:07:05;3.90;;;2.70;;
71187;SDS011;58893;53.130;8.158;2022-08-19T08:09:52;6.03;;;2.70;;
71187;SDS011;58893;53.130;8.158;2022-08-19T08:12:19;6.87;;;3.13;;
71187;SDS011;58893;53.130;8.158;2022-08-19T08:14:55;4.53;;;2.40;;
71187;SDS011;58893;53.130;8.158;2022-08-19T08:17:30;4.80;;;2.63;;
71187;SDS011;58893;53.130;8.158;2022-08-19T08:19:57;5.40;;;3.03;;
71187;SDS011;58893;53.130;8.158;2022-08-19T08:22:22;8.03;;;2.37;;
71187;SDS011;58893;53.130;8.158;2022-08-19T08:25:17;7.33;;;2.30;;
71187;SDS011;58893;53.130;8.158;2022-08-19T08:27:46;4.83;;;3.00;;
71187;SDS011;58893;53.130;8.158;2022-08-19T08:30:13;3.80;;;2.90;;
71187;SDS011;58893;53.130;8.158;2022-08-19T08:32:44;5.73;;;2.33;;
71187;SDS011;58893;53.130;8.158;2022-08-19T08:35:11;4.77;;;2.20;;
71187;SDS011;58893;53.130;8.158;2022-08-19T08:37:39;6.20;;;3.17;;
71187;SDS011;58893;53.130;8.158;2022-08-19T08:40:06;3.30;;;2.73;;
71187;SDS011;58893;53.130;8.158;2022-08-19T08:42:49;6.70;;;2.57;;
71187;SDS011;58893;53.130;8.158;2022-08-19T08:45:23;2.90;;;2.40;;
71187;SDS011;58893;53.130;8.158;2022-08-19T08:47:50;3.33;;;2.50;;
71187;SDS011;58893;53.130;8.158;2022-08-19T08:50:23;7.63;;;2.73;;
71187;SDS011;58893;53.130;8.158;2022-08-19T08:52:56;5.07;;;2.90;;
71187;SDS011;58893;53.130;8.158;2022-08-19T08:55:26;2.60;;;2.40;;
71187;SDS011;58893;53.130;8.158;2022-08-19T08:57:55;5.10;;;3.57;;
71187;SDS011;58893;53.130;8.158;2022-08-19T09:00:30;7.33;;;3.83;;
71187;SDS011;58893;53.130;8.158;2022-08-19T09:03:02;4.70;;;2.90;;
71187;SDS011;58893;53.130;8.158;2022-08-19T09:08:19;5.40;;;2.50;;
71187;SDS011;58893;53.130;8.158;2022-08-19T09:11:09;5.60;;;3.17;;
71187;SDS011;58893;53.130;8.158;2022-08-19T09:16:20;4.97;;;3.63;;
71187;SDS011;58893;53.130;8.158;2022-08-19T09:18:51;4.90;;;3.07;;
71187;SDS011;58893;53.130;8.158;2022-08-19T09:21:19;7.43;;;2.70;;
71187;SDS011;58893;53.130;8.158;2022-08-19T09:23:47;4.23;;;3.20;;
71187;SDS011;58893;53.130;8.158;2022-08-19T09:26:15;3.83;;;2.23;;
71187;SDS011;58893;53.130;8.158;2022-08-19T09:28:43;5.80;;;2.60;;
71187;SDS011;58893;53.130;8.158;2022-08-19T09:31:14;5.07;;;2.53;;
71187;SDS011;58893;53.130;8.158;2022-08-19T09:33:42;4.93;;;2.80;;
71187;SDS011;58893;53.130;8.158;2022-08-19T09:36:13;3.27;;;2.60;;
71187;SDS011;58893;53.130;8.158;2022-08-19T09:38:40;2.70;;;2.03;;
71187;SDS011;58893;53.130;8.158;2022-08-19T09:41:07;4.80;;;2.70;;
71187;SDS011;58893;53.130;8.158;2022-08-19T09:43:38;4.23;;;2.27;;
71187;SDS011;58893;53.130;8.158;2022-08-19T09:46:04;5.03;;;2.43;;
71187;SDS011;58893;53.130;8.158;2022-08-19T09:48:35;4.13;;;2.17;;
71187;SDS011;58893;53.130;8.158;2022-08-19T09:51:02;4.63;;;2.10;;
71187;SDS011;58893;53.130;8.158;2022-08-19T09:53:33;5.77;;;2.63;;
71187;SDS011;58893;53.130;8.158;2022-08-19T09:56:00;5.60;;;2.53;;
71187;SDS011;58893;53.130;8.158;2022-08-19T09:58:26;11.13;;;2.00;;
71187;SDS011;58893;53.130;8.158;2022-08-19T10:00:56;2.97;;;2.20;;
71187;SDS011;58893;53.130;8.158;2022-08-19T10:03:23;3.80;;;2.00;;
71187;SDS011;58893;53.130;8.158;2022-08-19T10:05:50;4.70;;;2.60;;
71187;SDS011;58893;53.130;8.158;2022-08-19T10:08:17;4.33;;;2.30;;
71187;SDS011;58893;53.130;8.158;2022-08-19T10:10:45;5.57;;;2.90;;
71187;SDS011;58893;53.130;8.158;2022-08-19T10:13:11;2.80;;;2.00;;
71187;SDS011;58893;53.130;8.158;2022-08-19T10:15:38;2.83;;;2.37;;
71187;SDS011;58893;53.130;8.158;2022-08-19T10:18:05;6.90;;;3.20;;
71187;SDS011;58893;53.130;8.158;2022-08-19T10:20:31;7.03;;;2.10;;
71187;SDS011;58893;53.130;8.158;2022-08-19T10:22:57;2.97;;;2.50;;
71187;SDS011;58893;53.130;8.158;2022-08-19T10:25:24;2.67;;;2.37;;
71187;SDS011;58893;53.130;8.158;2022-08-19T10:27:51;3.97;;;2.20;;
71187;SDS011;58893;53.130;8.158;2022-08-19T10:30:17;3.37;;;2.53;;
71187;SDS011;58893;53.130;8.158;2022-08-19T10:32:44;2.77;;;2.37;;
71187;SDS011;58893;53.130;8.158;2022-08-19T10:35:11;3.67;;;2.20;;
71187;SDS011;58893;53.130;8.158;2022-08-19T10:37:37;3.70;;;2.30;;
71187;SDS011;58893;53.130;8.158;2022-08-19T10:40:04;3.67;;;2.20;;
71187;SDS011;58893;53.130;8.158;2022-08-19T10:42:32;10.30;;;3.40;;
71187;SDS011;58893;53.130;8.158;2022-08-19T10:44:58;2.77;;;2.50;;
71187;SDS011;58893;53.130;8.158;2022-08-19T10:47:24;2.70;;;2.20;;
71187;SDS011;58893;53.130;8.158;2022-08-19T10:49:49;3.60;;;2.20;;
71187;SDS011;58893;53.130;8.158;2022-08-19T10:52:34;2.90;;;2.27;;
71187;SDS011;58893;53.130;8.158;2022-08-19T10:55:00;5.33;;;2.80;;
71187;SDS011;58893;53.130;8.158;2022-08-19T10:57:45;5.10;;;2.03;;
71187;SDS011;58893;53.130;8.158;2022-08-19T11:00:11;2.70;;;2.23;;
71187;SDS011;58893;53.130;8.158;2022-08-19T11:02:38;4.60;;;2.03;;
71187;SDS011;58893;53.130;8.158;2022-08-19T11:05:04;3.50;;;2.33;;
71187;SDS011;58893;53.130;8.158;2022-08-19T11:07:31;2.27;;;2.07;;
71187;SDS011;58893;53.130;8.158;2022-08-19T11:09:57;2.83;;;2.03;;
71187;SDS011;58893;53.130;8.158;2022-08-19T11:12:23;2.90;;;2.60;;
71187;SDS011;58893;53.130;8.158;2022-08-19T11:14:49;4.47;;;2.10;;
71187;SDS011;58893;53.130;8.158;2022-08-19T11:17:15;9.10;;;2.90;;
71187;SDS011;58893;53.130;8.158;2022-08-19T11:19:41;2.50;;;2.23;;
71187;SDS011;58893;53.130;8.158;2022-08-19T11:22:08;2.87;;;2.10;;
71187;SDS011;58893;53.130;8.158;2022-08-19T11:24:34;2.67;;;1.90;;
71187;SDS011;58893;53.130;8.158;2022-08-19T11:27:05;5.40;;;1.70;;
71187;SDS011;58893;53.130;8.158;2022-08-19T11:29:34;5.73;;;2.00;;
71187;SDS011;58893;53.130;8.158;2022-08-19T11:32:03;6.90;;;1.93;;
71187;SDS011;58893;53.130;8.158;2022-08-19T11:34:31;2.27;;;2.07;;
71187;SDS011;58893;53.130;8.158;2022-08-19T11:36:57;2.63;;;1.97;;
71187;SDS011;58893;53.130;8.158;2022-08-19T11:39:24;5.57;;;2.07;;
71187;SDS011;58893;53.130;8.158;2022-08-19T11:41:51;2.60;;;2.40;;
71187;SDS011;58893;53.130;8.158;2022-08-19T11:44:17;2.50;;;2.13;;
71187;SDS011;58893;53.130;8.158;2022-08-19T11:46:43;2.60;;;1.90;;
71187;SDS011;58893;53.130;8.158;2022-08-19T11:49:11;2.03;;;1.77;;
71187;SDS011;58893;53.130;8.158;2022-08-19T11:51:37;2.90;;;1.80;;
71187;SDS011;58893;53.130;8.158;2022-08-19T11:54:04;3.73;;;2.00;;
71187;SDS011;58893;53.130;8.158;2022-08-19T11:56:30;4.70;;;1.70;;
71187;SDS011;58893;53.130;8.158;2022-08-19T11:58:56;7.07;;;2.40;;
71187;SDS011;58893;53.130;8.158;2022-08-19T12:01:23;2.97;;;1.80;;
71187;SDS011;58893;53.130;8.158;2022-08-19T12:03:51;2.73;;;2.10;;
71187;SDS011;58893;53.130;8.158;2022-08-19T12:06:19;1.70;;;1.60;;
71187;SDS011;58893;53.130;8.158;2022-08-19T12:08:52;4.17;;;1.80;;
71187;SDS011;58893;53.130;8.158;2022-08-19T12:11:18;4.20;;;2.37;;
71187;SDS011;58893;53.130;8.158;2022-08-19T12:13:44;3.43;;;1.60;;
71187;SDS011;58893;53.130;8.158;2022-08-19T12:16:15;3.00;;;1.97;;
71187;SDS011;58893;53.130;8.158;2022-08-19T12:18:47;6.70;;;2.40;;
71187;SDS011;58893;53.130;8.158;2022-08-19T12:21:17;3.63;;;2.10;;
71187;SDS011;58893;53.130;8.158;2022-08-19T12:23:46;2.30;;;2.10;;
71187;SDS011;58893;53.130;8.158;2022-08-19T12:26:12;4.60;;;2.50;;
71187;SDS011;58893;53.130;8.158;2022-08-19T12:28:38;7.40;;;2.77;;
71187;SDS011;58893;53.130;8.158;2022-08-19T12:31:04;2.17;;;1.97;;
71187;SDS011;58893;53.130;8.158;2022-08-19T12:33:30;6.00;;;2.20;;
71187;SDS011;58893;53.130;8.158;2022-08-19T12:35:59;3.80;;;2.47;;
71187;SDS011;58893;53.130;8.158;2022-08-19T12:38:28;4.53;;;2.10;;
71187;SDS011;58893;53.130;8.158;2022-08-19T12:40:54;3.00;;;2.00;;
71187;SDS011;58893;53.130;8.158;2022-08-19T12:43:20;7.60;;;2.10;;
71187;SDS011;58893;53.130;8.158;2022-08-19T12:45:46;2.63;;;1.90;;
71187;SDS011;58893;53.130;8.158;2022-08-19T12:48:12;1.80;;;1.60;;
71187;SDS011;58893;53.130;8.158;2022-08-19T12:50:39;2.03;;;1.83;;
71187;SDS011;58893;53.130;8.158;2022-08-19T12:53:06;2.20;;;1.80;;
71187;SDS011;58893;53.130;8.158;2022-08-19T12:55:32;3.97;;;2.13;;
71187;SDS011;58893;53.130;8.158;2022-08-19T12:57:58;3.73;;;1.80;;
71187;SDS011;58893;53.130;8.158;2022-08-19T13:00:26;1.53;;;1.43;;
71187;SDS011;58893;53.130;8.158;2022-08-19T13:02:53;2.33;;;2.00;;
71187;SDS011;58893;53.130;8.158;2022-08-19T13:05:20;3.30;;;2.37;;
71187;SDS011;58893;53.130;8.158;2022-08-19T13:07:48;2.00;;;1.80;;
71187;SDS011;58893;53.130;8.158;2022-08-19T13:10:16;1.73;;;1.47;;
71187;SDS011;58893;53.130;8.158;2022-08-19T13:12:44;2.23;;;2.00;;
71187;SDS011;58893;53.130;8.158;2022-08-19T13:15:12;2.20;;;2.00;;
71187;SDS011;58893;53.130;8.158;2022-08-19T13:17:39;3.43;;;1.90;;
71187;SDS011;58893;53.130;8.158;2022-08-19T13:20:05;2.00;;;1.80;;
71187;SDS011;58893;53.130;8.158;2022-08-19T13:22:35;2.87;;;1.90;;
71187;SDS011;58893;53.130;8.158;2022-08-19T13:25:02;3.50;;;1.83;;
71187;SDS011;58893;53.130;8.158;2022-08-19T13:27:31;4.30;;;2.10;;
71187;SDS011;58893;53.130;8.158;2022-08-19T13:29:57;3.27;;;2.27;;
71187;SDS011;58893;53.130;8.158;2022-08-19T13:32:41;2.13;;;1.93;;
71187;SDS011;58893;53.130;8.158;2022-08-19T13:35:25;2.40;;;1.90;;
71187;SDS011;58893;53.130;8.158;2022-08-19T13:37:51;2.80;;;2.27;;
71187;SDS011;58893;53.130;8.158;2022-08-19T13:40:18;3.30;;;2.20;;
71187;SDS011;58893;53.130;8.158;2022-08-19T13:42:48;3.40;;;2.20;;
71187;SDS011;58893;53.130;8.158;2022-08-19T13:45:16;4.10;;;2.03;;
71187;SDS011;58893;53.130;8.158;2022-08-19T13:47:47;4.13;;;2.30;;
71187;SDS011;58893;53.130;8.158;2022-08-19T13:50:15;2.40;;;1.90;;
71187;SDS011;58893;53.130;8.158;2022-08-19T13:52:43;3.80;;;2.00;;
71187;SDS011;58893;53.130;8.158;2022-08-19T13:55:09;2.63;;;1.80;;
71187;SDS011;58893;53.130;8.158;2022-08-19T13:57:36;2.67;;;2.20;;
71187;SDS011;58893;53.130;8.158;2022-08-19T14:00:04;4.07;;;2.10;;
71187;SDS011;58893;53.130;8.158;2022-08-19T14:02:35;3.20;;;1.87;;
71187;SDS011;58893;53.130;8.158;2022-08-19T14:05:02;2.70;;;2.33;;
71187;SDS011;58893;53.130;8.158;2022-08-19T14:07:29;3.03;;;2.13;;
71187;SDS011;58893;53.130;8.158;2022-08-19T14:09:54;2.37;;;2.17;;
71187;SDS011;58893;53.130;8.158;2022-08-19T14:12:20;2.43;;;2.10;;
71187;SDS011;58893;53.130;8.158;2022-08-19T14:14:46;2.87;;;2.40;;
71187;SDS011;58893;53.130;8.158;2022-08-19T14:17:13;3.30;;;2.70;;
71187;SDS011;58893;53.130;8.158;2022-08-19T14:19:39;3.97;;;2.40;;
71187;SDS011;58893;53.130;8.158;2022-08-19T14:22:05;2.60;;;2.13;;
71187;SDS011;58893;53.130;8.158;2022-08-19T14:24:31;3.93;;;2.60;;
71187;SDS011;58893;53.130;8.158;2022-08-19T14:27:00;3.77;;;2.83;;
71187;SDS011;58893;53.130;8.158;2022-08-19T14:29:25;3.63;;;2.53;;
71187;SDS011;58893;53.130;8.158;2022-08-19T14:31:53;3.63;;;3.03;;
71187;SDS011;58893;53.130;8.158;2022-08-19T14:34:21;4.73;;;3.07;;
71187;SDS011;58893;53.130;8.158;2022-08-19T14:36:47;3.27;;;2.50;;
71187;SDS011;58893;53.130;8.158;2022-08-19T14:39:13;4.23;;;2.80;;
71187;SDS011;58893;53.130;8.158;2022-08-19T14:41:40;6.33;;;2.50;;
71187;SDS011;58893;53.130;8.158;2022-08-19T14:44:10;3.17;;;2.23;;
71187;SDS011;58893;53.130;8.158;2022-08-19T14:46:37;5.03;;;3.10;;
71187;SDS011;58893;53.130;8.158;2022-08-19T14:49:03;4.90;;;2.70;;
71187;SDS011;58893;53.130;8.158;2022-08-19T14:51:29;3.07;;;2.77;;
71187;SDS011;58893;53.130;8.158;2022-08-19T14:53:55;3.70;;;2.93;;
71187;SDS011;58893;53.130;8.158;2022-08-19T14:56:23;5.70;;;3.10;;
71187;SDS011;58893;53.130;8.158;2022-08-19T14:58:51;4.47;;;3.00;;
71187;SDS011;58893;53.130;8.158;2022-08-19T15:01:17;2.80;;;2.50;;